Time;durP1;ratioP1;P1;durP2;ratioP2;P2;SDS_P1;SDS_P2;PMS_P1;PMS_P2;Temp;Humidity;BMP_temperature;BMP_pressure;BME280_temperature;BME280_humidity;BME280_pressure;Samples;Min_cycle;Max_cycle;Signal;HPM_P1;HPM_P2
2023/03/23 00:01:04;;;;;;;3.70;1.92;;;;;;;;;;5006325;28;20641;-59
2023/03/23 00:03:34;;;;;;;2.30;1.65;;;;;;;;;;5009540;28;20053;-59
2023/03/23 00:06:09;;;;;;;3.67;1.73;;;;;;;;;;5009972;28;20045;-59
2023/03/23 00:08:44;;;;;;;2.53;1.90;;;;;;;;;;5009715;28;20048;-59
2023/03/23 00:11:14;;;;;;;2.85;1.85;;;;;;;;;;5009682;28;20030;-59
2023/03/23 00:13:45;;;;;;;;;;;;;;;;;;5009044;28;20045;-59
2023/03/23 00:16:17;;;;;;;1.95;1.60;;;;;;;;;;5009546;28;19929;-59
2023/03/23 00:18:45;;;;;;;2.63;2.10;;;;;;;;;;5007633;28;20403;-59
2023/03/23 00:21:11;;;;;;;3.05;1.83;;;;;;;;;;5010085;28;20034;-59
2023/03/23 00:23:38;;;;;;;2.25;1.65;;;;;;;;;;5009428;28;20046;-59
2023/03/23 00:26:04;;;;;;;5.25;1.85;;;;;;;;;;5008557;28;20522;-59
2023/03/23 00:28:30;;;;;;;2.65;1.80;;;;;;;;;;5009749;28;20049;-60
2023/03/23 00:30:56;;;;;;;3.33;1.73;;;;;;;;;;5007449;28;20050;-59
2023/03/23 00:33:37;;;;;;;2.08;1.88;;;;;;;;;;5009103;28;20038;-59
2023/03/23 00:36:04;;;;;;;4.18;1.52;;;;;;;;;;5009537;28;20034;-59
2023/03/23 00:38:31;;;;;;;3.90;1.63;;;;;;;;;;5009215;28;20058;-60
2023/03/23 00:41:02;;;;;;;2.20;1.65;;;;;;;;;;5007260;28;20053;-60
2023/03/23 00:43:29;;;;;;;2.40;1.60;;;;;;;;;;5008147;28;20067;-59
2023/03/23 00:45:56;;;;;;;1.92;1.70;;;;;;;;;;5007017;28;20072;-59
2023/03/23 00:48:23;;;;;;;2.35;1.65;;;;;;;;;;5008283;28;20052;-59
2023/03/23 00:50:52;;;;;;;3.60;1.70;;;;;;;;;;5008126;28;20033;-59
2023/03/23 00:53:18;;;;;;;2.78;1.40;;;;;;;;;;5009403;28;20029;-61
2023/03/23 00:55:46;;;;;;;1.90;1.65;;;;;;;;;;4991389;28;20045;-59
2023/03/23 00:58:14;;;;;;;2.38;1.60;;;;;;;;;;5008139;28;20384;-59
2023/03/23 01:00:41;;;;;;;1.95;1.70;;;;;;;;;;5006856;28;20041;-59
2023/03/23 01:03:11;;;;;;;2.35;1.80;;;;;;;;;;5006526;28;20053;-59
2023/03/23 01:05:39;;;;;;;4.03;1.67;;;;;;;;;;5006678;28;20408;-59
2023/03/23 01:08:06;;;;;;;2.75;1.60;;;;;;;;;;5008707;28;20381;-59
2023/03/23 01:10:33;;;;;;;3.03;1.70;;;;;;;;;;5007665;28;20057;-58
2023/03/23 01:13:00;;;;;;;2.75;1.88;;;;;;;;;;4992170;28;20046;-58
2023/03/23 01:15:28;;;;;;;2.88;1.70;;;;;;;;;;5003675;28;20060;-58
2023/03/23 01:17:55;;;;;;;3.17;1.55;;;;;;;;;;5007491;28;20038;-58
2023/03/23 01:20:21;;;;;;;2.95;1.60;;;;;;;;;;5004860;28;20519;-58
2023/03/23 01:22:47;;;;;;;2.63;1.92;;;;;;;;;;5008065;28;20041;-58
2023/03/23 01:25:14;;;;;;;3.95;1.90;;;;;;;;;;5008068;28;20034;-58
2023/03/23 01:27:41;;;;;;;2.55;1.70;;;;;;;;;;5007603;28;20061;-58
2023/03/23 01:30:11;;;;;;;1.88;1.60;;;;;;;;;;5007073;28;20406;-58
2023/03/23 01:32:38;;;;;;;2.85;1.80;;;;;;;;;;5008509;28;20381;-58
2023/03/23 01:35:05;;;;;;;1.92;1.67;;;;;;;;;;4989915;28;20042;-60
2023/03/23 01:37:32;;;;;;;2.30;1.60;;;;;;;;;;5007048;28;20038;-59
2023/03/23 01:39:58;;;;;;;2.58;1.70;;;;;;;;;;5006869;28;20511;-59
2023/03/23 01:42:30;;;;;;;1.90;1.60;;;;;;;;;;5007579;28;20046;-59
2023/03/23 01:45:25;;;;;;;3.70;1.75;;;;;;;;;;5007153;28;20419;-59
2023/03/23 01:47:57;;;;;;;3.67;1.75;;;;;;;;;;5005368;28;20406;-59
2023/03/23 01:50:26;;;;;;;4.03;1.67;;;;;;;;;;5006132;28;20042;-60
2023/03/23 01:52:54;;;;;;;3.22;1.92;;;;;;;;;;5007167;28;20044;-59
2023/03/23 01:55:21;;;;;;;3.78;1.70;;;;;;;;;;5007956;28;20038;-57
2023/03/23 01:57:49;;;;;;;4.28;1.63;;;;;;;;;;5005997;28;20045;-59
2023/03/23 02:00:16;;;;;;;2.40;1.60;;;;;;;;;;5006182;28;20508;-59
2023/03/23 02:02:52;;;;;;;2.40;1.70;;;;;;;;;;5006235;28;20056;-59
2023/03/23 02:05:28;;;;;;;;;;;;;;;;;;5006453;28;20049;-60
2023/03/23 02:07:59;;;;;;;2.50;1.90;;;;;;;;;;5019131;28;19921;-60
2023/03/23 02:10:26;;;;;;;3.65;1.73;;;;;;;;;;5006942;28;20562;-59
2023/03/23 02:12:52;;;;;;;2.53;1.92;;;;;;;;;;5004400;28;20049;-59
2023/03/23 02:15:20;;;;;;;2.05;1.50;;;;;;;;;;5006128;28;20064;-59
2023/03/23 02:17:58;;;;;;;3.58;1.70;;;;;;;;;;5007128;28;20463;-59
2023/03/23 02:20:38;;;;;;;2.13;1.63;;;;;;;;;;4989337;28;20101;-59
2023/03/23 02:23:30;;;;;;;3.03;1.80;;;;;;;;;;5010706;28;20058;-59
2023/03/23 02:26:02;;;;;;;3.03;1.58;;;;;;;;;;5008119;28;20496;-59
2023/03/23 02:28:49;;;;;;;2.72;1.90;;;;;;;;;;5011011;28;20042;-59
2023/03/23 02:31:21;;;;;;;2.03;1.55;;;;;;;;;;5008650;28;20527;-60
2023/03/23 02:33:57;;;;;;;3.17;1.50;;;;;;;;;;5007554;28;20046;-59
2023/03/23 02:36:43;;;;;;;2.95;1.60;;;;;;;;;;5036582;28;20052;-59
2023/03/23 02:39:18;;;;;;;3.15;1.50;;;;;;;;;;5009332;28;20118;-60
2023/03/23 02:41:59;;;;;;;3.08;1.60;;;;;;;;;;5010495;28;20045;-59
2023/03/23 02:44:29;;;;;;;2.20;1.73;;;;;;;;;;5008437;28;20508;-60
2023/03/23 02:46:58;;;;;;;2.92;1.67;;;;;;;;;;4993756;28;20049;-60
2023/03/23 02:49:28;;;;;;;3.17;1.77;;;;;;;;;;5008008;28;20037;-59
2023/03/23 02:51:56;;;;;;;;;;;;;;;;;;5009193;28;20064;-59
2023/03/23 02:54:25;;;;;;;3.10;1.88;;;;;;;;;;5010013;28;20249;-60
2023/03/23 02:56:52;;;;;;;;;;;;;;;;;;5010466;28;20416;-59
2023/03/23 02:59:23;;;;;;;1.70;1.60;;;;;;;;;;5025954;28;19917;-59
2023/03/23 03:01:54;;;;;;;8.23;1.77;;;;;;;;;;5008176;28;20041;-59
2023/03/23 03:04:24;;;;;;;1.60;1.50;;;;;;;;;;5005399;28;20038;-59
2023/03/23 03:07:07;;;;;;;2.10;1.50;;;;;;;;;;5007601;28;20056;-60
2023/03/23 03:09:48;;;;;;;1.83;1.65;;;;;;;;;;5009197;28;20053;-60
2023/03/23 03:12:30;;;;;;;2.05;1.55;;;;;;;;;;5009465;28;20684;-60
2023/03/23 03:15:05;;;;;;;2.28;1.65;;;;;;;;;;5010172;28;20492;-59
2023/03/23 03:17:31;;;;;;;2.72;1.80;;;;;;;;;;5006768;28;20410;-59
2023/03/23 03:20:07;;;;;;;3.22;1.50;;;;;;;;;;5007707;28;20030;-59
2023/03/23 03:22:37;;;;;;;1.88;1.30;;;;;;;;;;5035743;28;20400;-59
2023/03/23 03:25:05;;;;;;;2.53;1.40;;;;;;;;;;5011078;28;20041;-60
2023/03/23 03:27:32;;;;;;;2.85;1.67;;;;;;;;;;5010519;28;20029;-59
2023/03/23 03:30:11;;;;;;;2.65;1.90;;;;;;;;;;5008970;28;20507;-59
2023/03/23 03:32:46;;;;;;;3.22;1.60;;;;;;;;;;5009248;28;20034;-59
2023/03/23 03:35:14;;;;;;;2.30;1.48;;;;;;;;;;5008325;28;20046;-59
2023/03/23 03:37:40;;;;;;;1.83;1.63;;;;;;;;;;5010170;28;20479;-59
2023/03/23 03:40:11;;;;;;;3.10;1.80;;;;;;;;;;5008754;28;20046;-59
2023/03/23 03:42:40;;;;;;;2.58;1.70;;;;;;;;;;5009199;28;20034;-59
2023/03/23 03:45:10;;;;;;;2.35;1.50;;;;;;;;;;5008400;28;20040;-59
2023/03/23 03:47:36;;;;;;;5.50;1.90;;;;;;;;;;5008774;28;20518;-58
2023/03/23 03:50:03;;;;;;;2.88;1.63;;;;;;;;;;5008405;28;20034;-59
2023/03/23 03:52:31;;;;;;;2.25;1.70;;;;;;;;;;5008067;28;20403;-59
2023/03/23 03:54:58;;;;;;;2.42;1.67;;;;;;;;;;5008812;28;20050;-58
2023/03/23 03:57:26;;;;;;;2.75;1.63;;;;;;;;;;5009371;28;20050;-59
2023/03/23 04:00:14;;;;;;;2.60;2.05;;;;;;;;;;5008454;28;20545;-60
2023/03/23 04:02:42;;;;;;;2.80;1.88;;;;;;;;;;5010354;28;20045;-59
2023/03/23 04:05:09;;;;;;;2.58;1.70;;;;;;;;;;5008522;28;20049;-59
2023/03/23 04:07:38;;;;;;;4.82;2.00;;;;;;;;;;5007659;28;20042;-59
2023/03/23 04:10:06;;;;;;;2.45;1.90;;;;;;;;;;5005725;28;20036;-59
2023/03/23 04:12:35;;;;;;;1.85;1.50;;;;;;;;;;5009198;28;20037;-59
2023/03/23 04:15:40;;;;;;;2.40;1.80;;;;;;;;;;5022216;28;20569;-57
2023/03/23 04:18:06;;;;;;;2.47;1.70;;;;;;;;;;5036596;28;20038;-60
2023/03/23 04:20:34;;;;;;;1.88;1.55;;;;;;;;;;5007909;28;20033;-60
2023/03/23 04:23:01;;;;;;;2.58;1.90;;;;;;;;;;5008352;28;20046;-59
2023/03/23 04:25:28;;;;;;;4.68;1.70;;;;;;;;;;5008372;28;20052;-60
2023/03/23 04:27:54;;;;;;;3.28;2.05;;;;;;;;;;5008031;28;20045;-60
2023/03/23 04:30:27;;;;;;;2.85;1.70;;;;;;;;;;5006860;28;20065;-59
2023/03/23 04:33:14;;;;;;;3.50;1.90;;;;;;;;;;5009808;28;20033;-60
2023/03/23 04:35:45;;;;;;;2.92;1.90;;;;;;;;;;5007620;28;20049;-60
2023/03/23 04:38:27;;;;;;;2.03;1.83;;;;;;;;;;5003795;28;20038;-60
2023/03/23 04:41:01;;;;;;;2.40;2.00;;;;;;;;;;5007477;28;20488;-60
2023/03/23 04:43:52;;;;;;;3.13;1.80;;;;;;;;;;5006892;28;20034;-60
2023/03/23 04:46:32;;;;;;;2.67;1.90;;;;;;;;;;5003859;28;20034;-60
2023/03/23 04:49:05;;;;;;;2.30;2.10;;;;;;;;;;5005269;28;20041;-59
2023/03/23 04:51:35;;;;;;;2.85;2.00;;;;;;;;;;4992670;28;20042;-60
2023/03/23 04:54:14;;;;;;;2.40;1.90;;;;;;;;;;4991970;28;20030;-59
2023/03/23 04:56:42;;;;;;;5.05;2.08;;;;;;;;;;5007590;28;20034;-60
2023/03/23 04:59:14;;;;;;;2.75;2.05;;;;;;;;;;5007222;28;20038;-60
2023/03/23 05:01:51;;;;;;;5.00;2.13;;;;;;;;;;5005773;28;20400;-60
2023/03/23 05:04:18;;;;;;;3.65;2.03;;;;;;;;;;5007900;28;20061;-59
2023/03/23 05:06:59;;;;;;;2.65;1.80;;;;;;;;;;5005470;28;20045;-59
2023/03/23 05:09:29;;;;;;;2.90;1.90;;;;;;;;;;5007684;28;20399;-59
2023/03/23 05:11:55;;;;;;;2.42;1.90;;;;;;;;;;5004264;28;20049;-59
2023/03/23 05:14:21;;;;;;;4.78;2.42;;;;;;;;;;5008632;28;20030;-60
2023/03/23 05:16:59;;;;;;;4.55;2.45;;;;;;;;;;5007009;28;20404;-59
2023/03/23 05:19:27;;;;;;;2.80;2.13;;;;;;;;;;5005816;28;20434;-59
2023/03/23 05:22:02;;;;;;;2.25;2.03;;;;;;;;;;4987027;28;20034;-59
2023/03/23 05:24:32;;;;;;;4.00;2.30;;;;;;;;;;5006532;28;20033;-59
2023/03/23 05:27:00;;;;;;;3.58;2.15;;;;;;;;;;5007305;28;20033;-59
2023/03/23 05:29:32;;;;;;;5.72;2.55;;;;;;;;;;5006574;28;20488;-61
2023/03/23 05:32:00;;;;;;;3.17;2.27;;;;;;;;;;4989135;28;20045;-60
2023/03/23 05:34:28;;;;;;;3.50;2.00;;;;;;;;;;5004893;28;20399;-58
2023/03/23 05:36:57;;;;;;;;;;;;;;;;;;5006528;28;20041;-58
2023/03/23 05:39:27;;;;;;;;;;;;;;;;;;5005778;28;19913;-59
2023/03/23 05:42:17;;;;;;;2.90;1.80;;;;;;;;;;5022911;28;19920;-59
2023/03/23 05:45:04;;;;;;;3.08;2.20;;;;;;;;;;5003395;28;20045;-59
2023/03/23 05:47:31;;;;;;;4.28;2.30;;;;;;;;;;5004848;28;20115;-61
2023/03/23 05:50:06;;;;;;;5.10;2.38;;;;;;;;;;5004797;28;20049;-60
2023/03/23 05:52:35;;;;;;;3.13;2.35;;;;;;;;;;5007277;28;20041;-59
2023/03/23 05:55:03;;;;;;;2.50;1.80;;;;;;;;;;5005534;28;20042;-59
2023/03/23 05:57:31;;;;;;;4.70;2.20;;;;;;;;;;5008508;28;20487;-60
2023/03/23 06:00:18;;;;;;;5.18;2.30;;;;;;;;;;5006879;28;20050;-58
2023/03/23 06:02:49;;;;;;;5.53;2.72;;;;;;;;;;5041477;28;20419;-60
2023/03/23 06:05:23;;;;;;;4.38;2.30;;;;;;;;;;5011229;28;20037;-60
2023/03/23 06:07:53;;;;;;;4.22;2.17;;;;;;;;;;5012929;28;20042;-59
2023/03/23 06:10:20;;;;;;;3.63;2.03;;;;;;;;;;5010322;28;20056;-61
2023/03/23 06:12:53;;;;;;;4.18;2.10;;;;;;;;;;5012291;28;20034;-59
2023/03/23 06:15:49;;;;;;;2.63;1.98;;;;;;;;;;5011568;28;20059;-61
2023/03/23 06:18:33;;;;;;;4.05;2.40;;;;;;;;;;5009469;28;20041;-60
2023/03/23 06:21:12;;;;;;;3.00;2.30;;;;;;;;;;5010376;28;20049;-60
2023/03/23 06:24:01;;;;;;;2.88;1.98;;;;;;;;;;5009814;28;20468;-60
2023/03/23 06:26:33;;;;;;;3.17;2.20;;;;;;;;;;5010933;28;20057;-60
2023/03/23 06:29:10;;;;;;;3.33;2.13;;;;;;;;;;5010979;28;20045;-60
2023/03/23 06:31:40;;;;;;;5.35;2.55;;;;;;;;;;5010300;28;20034;-60
2023/03/23 06:34:06;;;;;;;2.28;2.08;;;;;;;;;;5012225;28;20053;-58
2023/03/23 06:36:53;;;;;;;3.42;1.95;;;;;;;;;;5011323;28;20050;-60
2023/03/23 06:39:28;;;;;;;4.15;2.03;;;;;;;;;;5009238;28;20026;-63
2023/03/23 06:42:13;;;;;;;4.05;2.42;;;;;;;;;;5010855;28;20030;-61
2023/03/23 06:44:45;;;;;;;3.42;1.85;;;;;;;;;;5005286;28;20045;-61
2023/03/23 06:47:13;;;;;;;3.13;2.30;;;;;;;;;;5009829;28;20045;-60
2023/03/23 06:49:45;;;;;;;2.80;1.95;;;;;;;;;;5009979;28;20049;-60
2023/03/23 06:52:31;;;;;;;2.20;1.95;;;;;;;;;;5010574;28;20050;-60
2023/03/23 06:54:58;;;;;;;4.38;2.40;;;;;;;;;;5010447;28;20514;-61
2023/03/23 06:57:24;;;;;;;3.55;2.15;;;;;;;;;;5007675;28;20393;-61
2023/03/23 06:59:52;;;;;;;2.38;1.95;;;;;;;;;;5009340;28;20407;-61
2023/03/23 07:02:18;;;;;;;3.45;2.17;;;;;;;;;;5008966;28;20042;-61
2023/03/23 07:04:49;;;;;;;3.50;1.90;;;;;;;;;;5009460;28;20049;-59
2023/03/23 07:07:20;;;;;;;2.45;2.15;;;;;;;;;;5009693;28;20503;-60
2023/03/23 07:09:51;;;;;;;3.30;2.38;;;;;;;;;;4992281;28;20042;-60
2023/03/23 07:12:22;;;;;;;2.30;1.90;;;;;;;;;;5005096;28;20430;-60
2023/03/23 07:14:50;;;;;;;3.65;2.00;;;;;;;;;;4993054;28;20487;-59
2023/03/23 07:17:16;;;;;;;3.05;1.98;;;;;;;;;;5009628;28;20057;-60
2023/03/23 07:20:02;;;;;;;5.47;2.90;;;;;;;;;;5009382;28;20052;-60
2023/03/23 07:22:30;;;;;;;6.88;3.50;;;;;;;;;;5009800;28;20041;-60
2023/03/23 07:25:05;;;;;;;4.75;2.20;;;;;;;;;;5009671;28;20484;-60
2023/03/23 07:27:44;;;;;;;3.05;2.05;;;;;;;;;;5010132;28;20044;-60
2023/03/23 07:30:11;;;;;;;10.10;6.47;;;;;;;;;;5009518;28;20038;-59
2023/03/23 07:32:38;;;;;;;6.28;3.72;;;;;;;;;;5008376;28;20053;-61
2023/03/23 07:35:04;;;;;;;4.93;3.17;;;;;;;;;;5009790;28;20041;-59
2023/03/23 07:37:39;;;;;;;3.75;2.38;;;;;;;;;;5009373;28;20030;-60
2023/03/23 07:40:14;;;;;;;3.28;2.45;;;;;;;;;;5006722;28;20034;-59
2023/03/23 07:42:43;;;;;;;5.32;2.75;;;;;;;;;;5009290;28;20045;-58
2023/03/23 07:45:11;;;;;;;3.80;2.30;;;;;;;;;;5009349;28;20042;-59
2023/03/23 07:47:38;;;;;;;3.40;2.50;;;;;;;;;;5009069;28;20058;-59
2023/03/23 07:50:06;;;;;;;4.30;2.25;;;;;;;;;;5008313;28;20526;-59
2023/03/23 07:52:37;;;;;;;4.30;2.35;;;;;;;;;;5007463;28;20050;-59
2023/03/23 07:55:06;;;;;;;4.65;2.20;;;;;;;;;;5008271;28;20037;-59
2023/03/23 07:57:53;;;;;;;3.10;2.25;;;;;;;;;;5008178;28;20054;-59
2023/03/23 08:00:23;;;;;;;2.70;2.40;;;;;;;;;;5008050;28;20037;-60
2023/03/23 08:02:55;;;;;;;3.25;2.30;;;;;;;;;;5008834;28;20049;-59
2023/03/23 08:05:33;;;;;;;3.22;2.30;;;;;;;;;;5008614;28;20046;-59
2023/03/23 08:08:32;;;;;;;4.25;2.20;;;;;;;;;;5016354;28;20058;-59
2023/03/23 08:11:22;;;;;;;2.67;2.38;;;;;;;;;;5005798;28;20060;-59
2023/03/23 08:14:06;;;;;;;2.80;2.17;;;;;;;;;;5008298;28;20404;-59
2023/03/23 08:16:57;;;;;;;3.42;2.63;;;;;;;;;;5009541;28;20425;-59
2023/03/23 08:19:29;;;;;;;2.50;2.10;;;;;;;;;;5005182;28;20049;-59
2023/03/23 08:21:58;;;;;;;3.05;2.20;;;;;;;;;;5010940;28;20038;-59
2023/03/23 08:24:24;;;;;;;4.22;2.50;;;;;;;;;;5003944;28;20053;-59
2023/03/23 08:26:59;;;;;;;3.22;2.13;;;;;;;;;;5009708;28;20046;-59
2023/03/23 08:29:45;;;;;;;3.55;2.15;;;;;;;;;;5019521;28;20042;-59
2023/03/23 08:32:31;;;;;;;2.17;1.95;;;;;;;;;;5005797;28;20049;-59
2023/03/23 08:35:27;;;;;;;2.83;2.00;;;;;;;;;;4990800;28;20067;-60
2023/03/23 08:38:21;;;;;;;2.35;1.90;;;;;;;;;;5015712;28;20057;-59
2023/03/23 08:41:08;;;;;;;3.60;1.90;;;;;;;;;;5005500;28;20068;-59
2023/03/23 08:43:56;;;;;;;3.22;2.10;;;;;;;;;;5009017;28;20411;-59
2023/03/23 08:46:56;;;;;;;2.55;2.00;;;;;;;;;;4995634;28;20420;-60
2023/03/23 08:49:53;;;;;;;2.20;2.00;;;;;;;;;;5009036;28;20053;-59
2023/03/23 08:52:25;;;;;;;3.65;2.25;;;;;;;;;;5010246;28;20033;-59
2023/03/23 08:55:13;;;;;;;4.38;1.98;;;;;;;;;;5008314;28;20045;-59
2023/03/23 08:58:06;;;;;;;3.20;2.20;;;;;;;;;;4997828;28;20050;-60
2023/03/23 09:00:59;;;;;;;2.78;2.08;;;;;;;;;;5014014;28;20052;-60
2023/03/23 09:03:49;;;;;;;;;;;;;;;;;;5010231;28;20069;-59
2023/03/23 09:06:45;;;;;;;3.17;2.22;;;;;;;;;;5006507;28;20573;-59
2023/03/23 09:09:12;;;;;;;6.40;2.10;;;;;;;;;;4991937;28;20543;-60
2023/03/23 09:11:38;;;;;;;8.25;2.33;;;;;;;;;;5008695;28;20041;-59
2023/03/23 09:14:06;;;;;;;2.83;1.90;;;;;;;;;;4975563;28;20037;-59
2023/03/23 09:16:33;;;;;;;4.00;2.63;;;;;;;;;;5008389;28;20053;-59
2023/03/23 09:19:00;;;;;;;2.80;2.10;;;;;;;;;;5009496;28;20041;-60
2023/03/23 09:21:27;;;;;;;3.42;2.50;;;;;;;;;;5009422;28;20041;-60
2023/03/23 09:23:58;;;;;;;4.07;2.20;;;;;;;;;;5009229;28;20034;-60
2023/03/23 09:26:27;;;;;;;2.67;2.03;;;;;;;;;;5009800;28;20038;-59
2023/03/23 09:28:56;;;;;;;5.80;2.35;;;;;;;;;;5009960;28;20038;-60
2023/03/23 09:31:26;;;;;;;2.20;2.00;;;;;;;;;;5008244;28;20052;-59
2023/03/23 09:34:00;;;;;;;2.70;1.88;;;;;;;;;;5009379;28;20049;-60
2023/03/23 09:36:31;;;;;;;3.50;1.90;;;;;;;;;;5009307;28;20032;-60
2023/03/23 09:38:58;;;;;;;2.83;1.92;;;;;;;;;;5009535;28;20051;-60
2023/03/23 09:41:36;;;;;;;2.80;1.98;;;;;;;;;;5004648;28;20033;-59
2023/03/23 09:44:33;;;;;;;3.17;2.22;;;;;;;;;;5003042;28;20034;-60
2023/03/23 09:47:37;;;;;;;3.15;2.20;;;;;;;;;;5005556;28;20606;-60
2023/03/23 09:50:12;;;;;;;7.35;2.20;;;;;;;;;;5006814;28;20073;-59
2023/03/23 09:52:55;;;;;;;6.30;2.13;;;;;;;;;;5009308;28;20037;-59
2023/03/23 09:55:22;;;;;;;3.40;2.15;;;;;;;;;;5008718;28;20102;-59
2023/03/23 09:58:30;;;;;;;3.45;2.05;;;;;;;;;;5007284;28;20053;-60
2023/03/23 10:01:06;;;;;;;5.00;2.20;;;;;;;;;;5002571;28;20691;-59
2023/03/23 10:03:44;;;;;;;4.07;2.30;;;;;;;;;;5006311;28;20053;-59
2023/03/23 10:06:12;;;;;;;6.30;2.30;;;;;;;;;;5004002;28;20066;-59
2023/03/23 10:08:51;;;;;;;4.20;2.50;;;;;;;;;;5009340;28;20050;-59
2023/03/23 10:11:37;;;;;;;3.70;2.22;;;;;;;;;;5007660;28;20508;-59
2023/03/23 10:14:28;;;;;;;7.07;3.22;;;;;;;;;;5005864;28;20046;-59
2023/03/23 10:17:03;;;;;;;4.45;2.90;;;;;;;;;;5008658;28;20054;-60
2023/03/23 10:19:37;;;;;;;3.83;2.70;;;;;;;;;;5028105;28;20041;-59
2023/03/23 10:22:11;;;;;;;2.78;2.22;;;;;;;;;;5009054;28;20046;-60
2023/03/23 10:24:52;;;;;;;4.45;3.10;;;;;;;;;;5008493;28;20034;-59
2023/03/23 10:27:40;;;;;;;5.60;3.92;;;;;;;;;;5008250;28;20038;-59
2023/03/23 10:30:22;;;;;;;3.77;2.40;;;;;;;;;;5008363;28;20522;-60
2023/03/23 10:32:53;;;;;;;3.97;2.20;;;;;;;;;;5008111;28;20404;-59
2023/03/23 10:35:26;;;;;;;5.38;2.42;;;;;;;;;;5007063;28;20045;-59
2023/03/23 10:37:59;;;;;;;4.22;2.42;;;;;;;;;;5007719;28;20550;-59
2023/03/23 10:40:29;;;;;;;2.45;2.17;;;;;;;;;;5008269;28;20300;-59
2023/03/23 10:42:58;;;;;;;5.50;2.50;;;;;;;;;;5008941;28;20049;-59
2023/03/23 10:45:29;;;;;;;4.05;2.38;;;;;;;;;;5004014;28;20034;-59
2023/03/23 10:48:08;;;;;;;3.70;2.35;;;;;;;;;;5012341;28;20038;-59
2023/03/23 10:50:37;;;;;;;3.70;2.17;;;;;;;;;;5008847;28;20527;-59
2023/03/23 10:53:19;;;;;;;4.07;2.50;;;;;;;;;;5011359;28;20053;-59
2023/03/23 10:55:46;;;;;;;5.03;2.60;;;;;;;;;;5005835;28;20049;-59
2023/03/23 10:58:24;;;;;;;2.80;2.42;;;;;;;;;;5012411;28;20045;-60
2023/03/23 11:00:50;;;;;;;4.10;2.72;;;;;;;;;;5009549;28;20065;-59
2023/03/23 11:03:17;;;;;;;4.43;2.80;;;;;;;;;;5012164;28;20045;-59
2023/03/23 11:05:43;;;;;;;3.83;2.78;;;;;;;;;;5011771;28;20038;-61
2023/03/23 11:08:13;;;;;;;5.35;2.63;;;;;;;;;;5011938;28;20411;-60
2023/03/23 11:10:46;;;;;;;5.78;2.50;;;;;;;;;;5011377;28;20042;-60
2023/03/23 11:13:16;;;;;;;3.80;2.78;;;;;;;;;;5012491;28;20073;-59
2023/03/23 11:15:47;;;;;;;2.90;2.50;;;;;;;;;;5011790;28;20022;-61
2023/03/23 11:18:19;;;;;;;2.97;2.40;;;;;;;;;;5011801;28;20065;-62
2023/03/23 11:20:48;;;;;;;3.83;2.42;;;;;;;;;;5010671;28;20075;-61
2023/03/23 11:23:23;;;;;;;4.88;2.70;;;;;;;;;;5009901;28;20060;-62
2023/03/23 11:26:14;;;;;;;5.07;2.53;;;;;;;;;;5011239;28;20044;-62
2023/03/23 11:28:49;;;;;;;4.20;2.50;;;;;;;;;;5007513;28;20041;-62
2023/03/23 11:31:16;;;;;;;4.18;2.63;;;;;;;;;;5003796;28;20046;-61
2023/03/23 11:34:00;;;;;;;3.70;2.80;;;;;;;;;;5011536;28;20041;-61
2023/03/23 11:36:36;;;;;;;3.08;2.42;;;;;;;;;;5011291;28;20650;-61
2023/03/23 11:39:18;;;;;;;3.72;2.65;;;;;;;;;;5011517;28;20038;-61
2023/03/23 11:41:44;;;;;;;4.75;2.85;;;;;;;;;;5011623;28;20045;-61
2023/03/23 11:44:12;;;;;;;4.18;2.65;;;;;;;;;;5010644;28;20050;-61
2023/03/23 11:46:47;;;;;;;6.68;2.67;;;;;;;;;;5011050;28;20030;-61
2023/03/23 11:49:29;;;;;;;5.38;2.90;;;;;;;;;;5010422;28;20045;-61
2023/03/23 11:52:05;;;;;;;3.90;2.72;;;;;;;;;;5008678;28;20041;-62
2023/03/23 11:54:40;;;;;;;4.00;2.88;;;;;;;;;;5008180;28;20026;-62
2023/03/23 11:57:11;;;;;;;4.90;2.70;;;;;;;;;;5009922;28;20046;-60
2023/03/23 11:59:38;;;;;;;6.20;3.20;;;;;;;;;;5009886;28;20032;-60
2023/03/23 12:02:04;;;;;;;6.80;3.10;;;;;;;;;;5008100;28;20042;-59
2023/03/23 12:05:04;;;;;;;5.63;2.90;;;;;;;;;;5010749;28;20105;-59
2023/03/23 12:07:49;;;;;;;10.70;3.00;;;;;;;;;;5010761;28;20038;-59
2023/03/23 12:10:26;;;;;;;6.15;2.85;;;;;;;;;;5010449;28;20041;-60
2023/03/23 12:13:03;;;;;;;8.68;3.30;;;;;;;;;;5007193;28;20046;-59
2023/03/23 12:15:50;;;;;;;14.35;6.15;;;;;;;;;;5010261;28;20041;-61
2023/03/23 12:18:19;;;;;;;4.85;3.28;;;;;;;;;;5010534;28;20407;-60
2023/03/23 12:21:04;;;;;;;6.85;3.88;;;;;;;;;;5009204;28;20042;-60
2023/03/23 12:23:56;;;;;;;10.50;4.78;;;;;;;;;;5010891;28;20042;-60
2023/03/23 12:26:40;;;;;;;6.88;3.42;;;;;;;;;;5009613;28;20538;-60
2023/03/23 12:29:47;;;;;;;8.52;3.35;;;;;;;;;;5009346;28;20056;-60
2023/03/23 12:32:27;;;;;;;5.07;2.80;;;;;;;;;;5025241;28;20507;-60
2023/03/23 12:35:11;;;;;;;5.57;3.08;;;;;;;;;;5012198;28;20049;-60
2023/03/23 12:37:43;;;;;;;7.55;3.28;;;;;;;;;;5004430;28;20494;-59
2023/03/23 12:40:22;;;;;;;7.70;3.33;;;;;;;;;;5010009;28;20057;-60
2023/03/23 12:42:48;;;;;;;6.60;2.85;;;;;;;;;;5010369;28;20050;-59
2023/03/23 12:45:19;;;;;;;5.72;3.10;;;;;;;;;;5008420;28;20034;-60
2023/03/23 12:47:53;;;;;;;7.63;3.65;;;;;;;;;;5010102;28;20050;-60
2023/03/23 12:50:28;;;;;;;5.22;3.30;;;;;;;;;;5009460;28;20059;-60
2023/03/23 12:53:11;;;;;;;4.47;3.10;;;;;;;;;;5009978;28;20412;-60
2023/03/23 12:55:44;;;;;;;7.13;3.25;;;;;;;;;;5006074;28;20053;-62
2023/03/23 12:58:21;;;;;;;4.70;3.05;;;;;;;;;;5007718;28;20042;-61
2023/03/23 13:01:06;;;;;;;6.20;3.30;;;;;;;;;;5006670;28;20534;-61
2023/03/23 13:03:45;;;;;;;5.47;3.13;;;;;;;;;;5016007;28;20498;-62
2023/03/23 13:06:39;;;;;;;6.28;3.00;;;;;;;;;;5009540;28;20050;-62
2023/03/23 13:09:12;;;;;;;7.90;3.50;;;;;;;;;;5006548;28;20050;-61
2023/03/23 13:11:43;;;;;;;8.05;4.10;;;;;;;;;;5009748;28;20053;-62
2023/03/23 13:14:26;;;;;;;5.05;3.03;;;;;;;;;;5009364;28;20057;-61
2023/03/23 13:17:07;;;;;;;6.63;3.17;;;;;;;;;;5006168;28;20423;-62
2023/03/23 13:19:57;;;;;;;6.05;3.13;;;;;;;;;;5004657;28;20411;-62
2023/03/23 13:22:31;;;;;;;8.07;3.80;;;;;;;;;;5008337;28;20053;-62
2023/03/23 13:25:06;;;;;;;7.10;3.95;;;;;;;;;;5009323;28;20034;-62
2023/03/23 13:27:33;;;;;;;4.80;3.17;;;;;;;;;;5005287;28;20041;-62
2023/03/23 13:29:59;;;;;;;6.00;3.08;;;;;;;;;;5008745;28;20038;-61
2023/03/23 13:32:36;;;;;;;4.97;3.08;;;;;;;;;;5009274;28;20037;-61
2023/03/23 13:35:06;;;;;;;5.85;3.00;;;;;;;;;;5006130;28;20041;-62
2023/03/23 13:37:32;;;;;;;6.93;3.40;;;;;;;;;;5009773;28;20065;-62
2023/03/23 13:40:11;;;;;;;5.18;3.33;;;;;;;;;;5008680;28;20041;-63
2023/03/23 13:42:52;;;;;;;7.60;3.10;;;;;;;;;;5009223;28;20056;-62
2023/03/23 13:45:22;;;;;;;5.63;3.40;;;;;;;;;;5008631;28;20045;-62
2023/03/23 13:47:49;;;;;;;5.95;4.03;;;;;;;;;;5006161;28;20054;-61
2023/03/23 13:50:15;;;;;;;5.70;3.42;;;;;;;;;;5008477;28;20069;-62
2023/03/23 13:52:44;;;;;;;7.05;3.83;;;;;;;;;;5007885;28;20038;-62
2023/03/23 13:55:20;;;;;;;;;;;;;;;;;;5008885;28;20543;-62
2023/03/23 13:57:48;;;;;;;5.68;3.17;;;;;;;;;;5003590;28;19918;-62
2023/03/23 14:00:27;;;;;;;6.78;3.75;;;;;;;;;;5007372;28;20033;-62
2023/03/23 14:03:05;;;;;;;6.07;3.37;;;;;;;;;;4992905;28;20042;-62
2023/03/23 14:05:56;;;;;;;7.05;3.30;;;;;;;;;;5000373;28;20069;-62
2023/03/23 14:08:29;;;;;;;7.93;3.47;;;;;;;;;;5005063;28;20433;-60
2023/03/23 14:11:02;;;;;;;8.80;3.95;;;;;;;;;;5006317;28;20037;-62
2023/03/23 14:13:34;;;;;;;6.35;3.20;;;;;;;;;;5003256;28;20026;-62
2023/03/23 14:16:04;;;;;;;5.78;3.03;;;;;;;;;;5002726;28;20040;-62
2023/03/23 14:18:39;;;;;;;6.88;3.33;;;;;;;;;;5007631;28;20037;-62
2023/03/23 14:21:13;;;;;;;4.50;3.40;;;;;;;;;;5003129;28;20388;-62
2023/03/23 14:23:39;;;;;;;4.60;3.40;;;;;;;;;;5028293;28;20037;-62
2023/03/23 14:26:16;;;;;;;8.82;3.53;;;;;;;;;;5005701;28;20042;-62
2023/03/23 14:28:51;;;;;;;9.45;4.25;;;;;;;;;;5006436;28;20026;-62
2023/03/23 14:31:23;;;;;;;5.45;3.00;;;;;;;;;;5005863;28;20056;-62
2023/03/23 14:33:52;;;;;;;4.72;3.40;;;;;;;;;;5004558;28;20037;-61
2023/03/23 14:36:27;;;;;;;8.45;3.38;;;;;;;;;;5009394;28;20368;-62
2023/03/23 14:39:11;;;;;;;6.30;3.30;;;;;;;;;;5011481;28;20034;-61
2023/03/23 14:41:38;;;;;;;8.07;3.65;;;;;;;;;;5006616;28;20034;-61
2023/03/23 14:44:09;;;;;;;6.70;3.72;;;;;;;;;;5010214;28;20045;-61
2023/03/23 14:46:36;;;;;;;6.75;3.97;;;;;;;;;;5011193;28;20034;-61
2023/03/23 14:49:04;;;;;;;6.97;3.85;;;;;;;;;;5007909;28;20506;-61
2023/03/23 14:51:30;;;;;;;7.00;4.87;;;;;;;;;;5011318;28;20050;-61
2023/03/23 14:54:00;;;;;;;8.57;4.07;;;;;;;;;;5009388;28;20052;-61
2023/03/23 14:56:34;;;;;;;5.35;3.50;;;;;;;;;;5010198;28;20033;-61
2023/03/23 14:59:05;;;;;;;6.80;3.90;;;;;;;;;;5008185;28;20411;-60
2023/03/23 15:01:33;;;;;;;6.53;3.63;;;;;;;;;;5008720;28;20036;-61
2023/03/23 15:04:01;;;;;;;5.43;4.00;;;;;;;;;;5011246;28;20417;-61
2023/03/23 15:06:31;;;;;;;5.82;3.38;;;;;;;;;;5010387;28;20042;-61
2023/03/23 15:09:02;;;;;;;7.65;3.67;;;;;;;;;;5003867;28;20542;-61
2023/03/23 15:11:33;;;;;;;8.63;3.80;;;;;;;;;;5007954;28;20052;-61
2023/03/23 15:14:07;;;;;;;6.57;3.42;;;;;;;;;;5007946;28;20034;-61
2023/03/23 15:16:34;;;;;;;12.98;5.28;;;;;;;;;;5006892;28;20141;-61
2023/03/23 15:19:15;;;;;;;9.55;4.38;;;;;;;;;;5009979;28;20036;-61
2023/03/23 15:21:54;;;;;;;6.00;3.72;;;;;;;;;;5008170;28;20041;-61
2023/03/23 15:24:33;;;;;;;5.93;3.40;;;;;;;;;;5006901;28;20049;-61
2023/03/23 15:27:23;;;;;;;5.60;3.93;;;;;;;;;;5010891;28;20100;-60